Aérodrome :
LOGIN :

S'inscrire | Disclaimer

   EN    FR    IT 

 










Légende :    VFR   VFR Marginal   IFR   IFR Intensif   IFR Très Intensif
Visi : 
Plafond : 
>= 8 km
>= 3000ft
5 à 8 km
1000 à 3000 ft
1500m à 5 km
500 à 1000 ft
800 à 1500m
200 à 500 ft
< 800m
< 200 ft
Symboles :   Orages  Brouillard  Fortes neiges  Fortes précipitations  Vent > 20 kt
SIGMETs :   Divers  Orages  Givrage  Turbulence  Onde Orograph.  Cendres Volcan.






- Altitude de l'aérodrome : 120 ft
- Code IATA : MME


EGNV - Durham Tees valley

DERNIER METAR :
  • 100920Z 18023KT 9000 VCSH FEW020 BKN035 05/03 Q1004

METARs EXPIRÉS :
  • 100850Z 19017KT 9000 VCSH FEW025 SCT038 04/03 Q1005
  • 100820Z 18015KT 9999 VCSH FEW020 SCT035 04/03 Q1007
  • 100750Z 17016KT 9000 -RA FEW020 SCT045 03/02 Q1007
  • 100720Z 18019KT 9999 -RA FEW018 SCT045 03/02 Q1008
  • 100650Z 18012KT 9999 -RA FEW016 SCT021 03/01 Q1009

TAF TAF EGNV
Valide du 10 à 09h jusqu'au 10 à 18h UTC


100806Z 1009/1018 17015G25KT 9999 FEW035
BECMG 1009/1011 18023G35KT
PROB40
TEMPO 1009/1015 8000 -RA
TEMPO 1010/1015 20030G45KT
ATIS : +44 9012 018 111



MET'MAP, la Météo Aéronautique d'un coup d'oeil ! - Copyright ORBIFLY Décembre 2007 - Disclaimer

ORBIFLY MET'MAP TEAM :

Programmation & Développement : Alexandra Zaïnal
Sur une idée originale de : Baudouin d'Aumeries
Assistance à la programmation : Marc-Olivier Méhu
Soutien technique & logistique : Manuel Goepfert

Contact : metmap@orbifly.com




SOURCES & CREDITS :

   NOAA